createdAt,value
2023-05-05T00:02:24.519Z,64.82
2023-05-05T00:04:51.006Z,64.72
2023-05-05T00:07:17.409Z,64.30
2023-05-05T00:09:43.916Z,64.58
2023-05-05T00:12:10.347Z,64.69
2023-05-05T00:14:36.777Z,64.68
2023-05-05T00:17:04.044Z,65.03
2023-05-05T00:19:30.552Z,64.85
2023-05-05T00:21:56.957Z,64.89
2023-05-05T00:24:23.551Z,65.07
2023-05-05T00:26:50.028Z,65.27
2023-05-05T00:29:16.529Z,65.21
2023-05-05T00:31:43.116Z,65.92
2023-05-05T00:34:09.605Z,65.69
2023-05-05T00:36:36.147Z,65.54
2023-05-05T00:39:02.956Z,65.25
2023-05-05T00:41:29.417Z,64.93
2023-05-05T00:43:55.839Z,65.15
2023-05-05T00:46:29.262Z,64.79
2023-05-05T00:48:56.329Z,65.06
2023-05-05T00:51:24.370Z,65.17
2023-05-05T00:53:51.256Z,65.41
2023-05-05T00:56:19.700Z,66.20
2023-05-05T00:58:46.803Z,66.43
2023-05-05T01:01:13.662Z,66.35
2023-05-05T01:03:41.577Z,66.24
2023-05-05T01:06:26.209Z,66.18
2023-05-05T01:09:06.667Z,65.97
2023-05-05T01:11:51.321Z,66.30
2023-05-05T01:14:23.471Z,66.61
2023-05-05T01:17:10.361Z,66.35
2023-05-05T01:19:55.560Z,66.14
2023-05-05T01:22:27.519Z,66.19
2023-05-05T01:25:12.352Z,66.38
2023-05-05T01:27:55.664Z,66.62
2023-05-05T01:30:52.969Z,66.13
2023-05-05T01:33:26.064Z,66.48
2023-05-05T01:35:56.049Z,66.10
2023-05-05T01:38:27.568Z,66.39
2023-05-05T01:41:13.534Z,66.50
2023-05-05T01:43:43.792Z,66.51
2023-05-05T01:46:13.209Z,66.50
2023-05-05T01:48:43.078Z,67.21
2023-05-05T01:51:11.611Z,67.26
2023-05-05T01:53:39.536Z,67.05
2023-05-05T01:56:08.226Z,67.29
2023-05-05T01:58:36.342Z,67.19
2023-05-05T02:01:04.475Z,67.33
2023-05-05T02:03:33.938Z,67.56
2023-05-05T02:06:01.500Z,67.81
2023-05-05T02:08:31.203Z,67.72
2023-05-05T02:10:58.199Z,67.37
2023-05-05T02:13:26.142Z,67.50
2023-05-05T02:15:53.341Z,67.32
2023-05-05T02:18:22.803Z,67.08
2023-05-05T02:20:50.056Z,66.95
2023-05-05T02:23:16.601Z,67.55
2023-05-05T02:25:49.285Z,67.44
2023-05-05T02:28:21.062Z,67.74
2023-05-05T02:30:57.526Z,67.33
2023-05-05T02:33:27.359Z,67.49
2023-05-05T02:35:57.236Z,67.40
2023-05-05T02:38:28.676Z,67.53
2023-05-05T02:41:01.532Z,67.65
2023-05-05T02:43:31.934Z,67.59
2023-05-05T02:45:58.989Z,67.44
2023-05-05T02:48:29.606Z,67.42
2023-05-05T02:50:59.872Z,67.56
2023-05-05T02:53:35.964Z,67.73
2023-05-05T02:56:27.105Z,68.08
2023-05-05T02:59:15.276Z,67.59
2023-05-05T03:02:15.667Z,67.73
2023-05-05T03:04:46.985Z,67.84
2023-05-05T03:07:20.542Z,68.08
2023-05-05T03:10:08.542Z,68.19
2023-05-05T03:12:52.718Z,67.86
2023-05-05T03:15:35.923Z,67.89
2023-05-05T03:18:03.841Z,68.11
2023-05-05T03:20:31.134Z,68.12
2023-05-05T03:23:02.861Z,68.09
2023-05-05T03:25:50.094Z,68.20
2023-05-05T03:28:26.696Z,68.20
2023-05-05T03:30:54.396Z,68.05
2023-05-05T03:33:21.349Z,67.56
2023-05-05T03:35:47.954Z,67.96
2023-05-05T03:38:14.474Z,68.31
2023-05-05T03:40:44.651Z,68.47
2023-05-05T03:43:14.021Z,68.69
2023-05-05T03:45:40.610Z,68.73
2023-05-05T03:48:07.265Z,68.90
2023-05-05T03:50:33.785Z,68.92
2023-05-05T03:53:00.592Z,69.06
2023-05-05T03:55:27.061Z,68.61
2023-05-05T03:57:53.480Z,68.61
2023-05-05T04:00:19.961Z,68.16
2023-05-05T04:02:46.558Z,68.92
2023-05-05T04:05:16.075Z,68.73
2023-05-05T04:07:43.299Z,68.97
2023-05-05T04:10:10.327Z,68.99
2023-05-05T04:12:37.518Z,68.44
2023-05-05T04:15:04.542Z,68.92
2023-05-05T04:17:31.142Z,68.41
2023-05-05T04:19:58.196Z,68.58
2023-05-05T04:22:24.655Z,68.31
2023-05-05T04:24:51.652Z,68.34
2023-05-05T04:27:18.113Z,68.57
2023-05-05T04:29:44.637Z,68.94
2023-05-05T04:32:11.230Z,68.56
2023-05-05T04:34:37.719Z,68.54
2023-05-05T04:37:04.756Z,68.51
2023-05-05T04:39:31.326Z,68.65
2023-05-05T04:41:58.528Z,68.41
2023-05-05T04:44:25.071Z,68.19
2023-05-05T04:46:51.601Z,68.54
2023-05-05T04:49:18.196Z,68.97
2023-05-05T04:51:45.263Z,68.92
2023-05-05T04:54:11.837Z,68.63
2023-05-05T04:56:38.313Z,68.20
2023-05-05T04:59:04.812Z,68.40
2023-05-05T05:01:31.712Z,68.65
2023-05-05T05:03:58.569Z,68.53
2023-05-05T05:06:25.114Z,68.38
2023-05-05T05:08:52.349Z,68.42
2023-05-05T05:11:18.835Z,69.04
2023-05-05T05:13:46.207Z,68.78
2023-05-05T05:16:12.801Z,68.48
2023-05-05T05:18:39.277Z,67.84
2023-05-05T05:21:06.220Z,67.85
2023-05-05T05:23:33.084Z,68.15
2023-05-05T05:25:59.762Z,67.93
2023-05-05T05:28:26.692Z,68.06
2023-05-05T05:30:57.577Z,67.92
2023-05-05T05:33:24.086Z,67.93
2023-05-05T05:35:52.274Z,68.14
2023-05-05T05:38:20.562Z,67.71
2023-05-05T05:40:48.677Z,66.92
2023-05-05T05:43:15.329Z,67.10
2023-05-05T05:45:41.914Z,67.66
2023-05-05T05:48:08.669Z,67.42
2023-05-05T05:50:35.850Z,67.47
2023-05-05T05:53:02.529Z,68.23
2023-05-05T05:55:29.580Z,68.60
2023-05-05T05:57:56.371Z,69.50
2023-05-05T06:00:22.966Z,69.25
2023-05-05T06:02:56.591Z,69.61
2023-05-05T06:05:26.902Z,69.53
2023-05-05T06:07:53.853Z,69.56
2023-05-05T06:10:28.078Z,71.21
2023-05-05T06:13:01.350Z,71.60
2023-05-05T06:15:28.564Z,72.20
2023-05-05T06:17:55.558Z,72.97
2023-05-05T06:20:22.812Z,73.10
2023-05-05T06:22:49.524Z,73.62
2023-05-05T06:25:17.287Z,74.36
2023-05-05T06:27:44.585Z,74.34
2023-05-05T06:30:11.795Z,74.56
2023-05-05T06:32:38.232Z,75.56
2023-05-05T06:35:05.095Z,75.77
2023-05-05T06:37:31.489Z,76.07
2023-05-05T06:39:57.989Z,76.16
2023-05-05T06:42:24.471Z,75.62
2023-05-05T06:44:52.522Z,75.79
2023-05-05T06:47:18.986Z,76.02
2023-05-05T06:49:45.386Z,76.23
2023-05-05T06:52:12.583Z,76.22
2023-05-05T06:54:39.025Z,76.56
2023-05-05T06:57:05.736Z,76.29
2023-05-05T06:59:32.453Z,76.44
2023-05-05T07:01:59.457Z,75.23
2023-05-05T07:04:26.721Z,74.80
2023-05-05T07:06:55.112Z,74.79
2023-05-05T07:09:21.572Z,75.08
2023-05-05T07:11:47.954Z,74.57
2023-05-05T07:14:14.391Z,74.40
2023-05-05T07:16:40.855Z,73.76
2023-05-05T07:19:07.430Z,73.75
2023-05-05T07:21:34.179Z,74.71
2023-05-05T07:24:01.806Z,74.38
2023-05-05T07:26:28.345Z,73.57
2023-05-05T07:28:58.726Z,74.07
2023-05-05T07:31:26.412Z,73.32
2023-05-05T07:33:52.961Z,71.78
2023-05-05T07:36:19.543Z,71.71
2023-05-05T07:38:46.068Z,72.10
2023-05-05T07:41:12.979Z,72.62
2023-05-05T07:43:44.506Z,71.92
2023-05-05T07:46:11.516Z,71.00
2023-05-05T07:48:41.462Z,70.58
2023-05-05T07:51:08.884Z,70.58
2023-05-05T07:53:35.328Z,70.13
2023-05-05T07:56:01.915Z,68.47
2023-05-05T07:58:28.423Z,68.79
2023-05-05T08:00:54.916Z,67.50
2023-05-05T08:03:24.322Z,67.38
2023-05-05T08:05:54.458Z,67.03
2023-05-05T08:08:24.372Z,68.29
2023-05-05T08:10:51.883Z,66.17
2023-05-05T08:13:18.440Z,63.82
2023-05-05T08:15:45.323Z,63.54
2023-05-05T08:18:11.849Z,63.26
2023-05-05T08:20:38.310Z,64.09
2023-05-05T08:23:05.061Z,63.92
2023-05-05T08:25:31.590Z,64.04
2023-05-05T08:27:58.028Z,64.21
2023-05-05T08:30:24.514Z,64.25
2023-05-05T08:32:51.044Z,63.89
2023-05-05T08:35:17.641Z,65.69
2023-05-05T08:37:44.193Z,66.13
2023-05-05T08:40:14.361Z,64.93
2023-05-05T08:42:42.013Z,64.50
2023-05-05T08:45:09.948Z,65.10
2023-05-05T08:47:37.904Z,66.12
2023-05-05T08:50:08.066Z,64.73
2023-05-05T08:52:43.991Z,65.43
2023-05-05T08:55:15.409Z,66.76
2023-05-05T08:57:50.325Z,66.27
2023-05-05T09:00:18.824Z,65.89
2023-05-05T09:02:46.480Z,65.82
2023-05-05T09:05:13.509Z,66.51
2023-05-05T09:07:43.858Z,68.22
2023-05-05T09:10:12.297Z,69.09
2023-05-05T09:12:42.502Z,68.52
2023-05-05T09:15:14.290Z,67.64
2023-05-05T09:17:41.977Z,67.35
2023-05-05T09:20:10.468Z,66.88
2023-05-05T09:22:41.998Z,65.31
2023-05-05T09:25:13.423Z,63.83
2023-05-05T09:27:49.334Z,63.71
2023-05-05T09:30:23.879Z,64.59
2023-05-05T09:32:52.925Z,64.04
2023-05-05T09:35:20.712Z,62.69
2023-05-05T09:37:47.824Z,61.89
2023-05-05T09:40:17.061Z,61.14
2023-05-05T09:42:44.663Z,61.05
2023-05-05T09:45:17.152Z,60.77
2023-05-05T09:47:45.702Z,58.44
2023-05-05T09:50:15.861Z,58.34
2023-05-05T09:52:45.799Z,59.08
2023-05-05T09:55:19.410Z,57.96
2023-05-05T09:57:47.297Z,57.25
2023-05-05T10:00:14.697Z,57.87
2023-05-05T10:02:41.875Z,58.39
2023-05-05T10:05:12.728Z,56.98
2023-05-05T10:07:41.281Z,57.89
2023-05-05T10:10:16.092Z,57.14
2023-05-05T10:12:43.433Z,55.32
2023-05-05T10:15:11.542Z,55.68
2023-05-05T10:18:05.386Z,56.09
2023-05-05T10:20:36.247Z,56.98
2023-05-05T10:23:06.535Z,54.61
2023-05-05T10:25:45.645Z,53.97
2023-05-05T10:28:19.628Z,52.29
2023-05-05T10:30:51.159Z,52.33
2023-05-05T10:33:32.256Z,52.99
2023-05-05T10:36:02.333Z,52.47
2023-05-05T10:38:30.693Z,51.86
2023-05-05T10:40:59.632Z,53.83
2023-05-05T10:43:27.503Z,51.46
2023-05-05T10:45:54.744Z,51.13
2023-05-05T10:48:30.703Z,52.20
2023-05-05T10:51:31.445Z,51.83
2023-05-05T10:54:16.961Z,52.19
2023-05-05T10:56:43.740Z,52.41
2023-05-05T10:59:38.701Z,53.08
2023-05-05T11:02:28.713Z,54.04
2023-05-05T11:05:23.530Z,52.26
2023-05-05T11:07:51.498Z,53.38
2023-05-05T11:10:20.530Z,53.67
2023-05-05T11:13:01.890Z,52.49
2023-05-05T11:15:28.636Z,53.37
2023-05-05T11:17:57.144Z,52.91
2023-05-05T11:20:39.686Z,53.25
2023-05-05T11:23:06.265Z,53.89
2023-05-05T11:25:40.595Z,53.65
2023-05-05T11:28:08.851Z,54.04
2023-05-05T11:30:59.703Z,53.36
2023-05-05T11:33:31.457Z,52.99
2023-05-05T11:36:05.738Z,51.64
2023-05-05T11:38:35.940Z,52.22
2023-05-05T11:41:16.531Z,52.00
2023-05-05T11:43:43.288Z,51.66
2023-05-05T11:46:14.244Z,52.55
2023-05-05T11:48:58.530Z,53.98
2023-05-05T11:51:25.615Z,54.93
2023-05-05T11:53:52.561Z,54.96
2023-05-05T11:56:20.497Z,55.67
2023-05-05T11:58:47.866Z,54.15
2023-05-05T12:01:14.906Z,52.57
2023-05-05T12:03:41.642Z,52.77
2023-05-05T12:06:08.616Z,52.58
2023-05-05T12:08:39.530Z,52.96
2023-05-05T12:11:11.024Z,53.48
2023-05-05T12:13:37.458Z,53.54
2023-05-05T12:16:15.225Z,53.42
2023-05-05T12:18:42.484Z,53.16
2023-05-05T12:21:19.204Z,52.64
2023-05-05T12:23:46.040Z,54.01
2023-05-05T12:26:26.127Z,54.28
2023-05-05T12:28:52.617Z,55.54
2023-05-05T12:31:19.916Z,55.01
2023-05-05T12:33:47.201Z,54.86
2023-05-05T12:36:14.174Z,53.85
2023-05-05T12:38:41.865Z,54.47
2023-05-05T12:41:08.300Z,54.48
2023-05-05T12:43:35.438Z,51.80
2023-05-05T12:46:04.515Z,52.75
2023-05-05T12:48:31.551Z,51.91
2023-05-05T12:51:11.443Z,48.82
2023-05-05T12:53:37.924Z,46.56
2023-05-05T12:56:04.714Z,46.74
2023-05-05T12:58:48.513Z,45.16
2023-05-05T13:01:14.984Z,46.21
2023-05-05T13:03:41.760Z,46.88
2023-05-05T13:06:21.758Z,45.05
2023-05-05T13:08:48.206Z,39.44
2023-05-05T13:11:14.694Z,32.49
2023-05-05T13:13:42.083Z,31.72
2023-05-05T13:16:08.608Z,28.38
2023-05-05T13:18:48.313Z,26.63
2023-05-05T13:21:14.948Z,30.47
2023-05-05T13:23:47.248Z,33.40
2023-05-05T13:26:14.105Z,35.66
2023-05-05T13:28:41.173Z,36.96
2023-05-05T13:31:07.950Z,35.79
2023-05-05T13:33:34.862Z,37.09
2023-05-05T13:36:04.634Z,40.52
2023-05-05T13:38:34.386Z,41.08
2023-05-05T13:41:00.906Z,41.06
2023-05-05T13:43:27.315Z,43.67
2023-05-05T13:45:53.724Z,43.65
2023-05-05T13:48:20.763Z,44.06
2023-05-05T13:50:47.264Z,44.67
2023-05-05T13:53:14.083Z,45.81
2023-05-05T13:55:41.981Z,45.71
2023-05-05T13:58:08.708Z,46.55
2023-05-05T14:00:35.472Z,50.59
2023-05-05T14:03:02.261Z,51.74
2023-05-05T14:05:28.726Z,52.65
2023-05-05T14:07:55.475Z,54.22
2023-05-05T14:10:21.958Z,55.87
2023-05-05T14:12:48.417Z,57.90
2023-05-05T14:15:14.837Z,57.47
2023-05-05T14:17:41.311Z,56.60
2023-05-05T14:20:08.314Z,56.85
2023-05-05T14:22:34.733Z,56.28
2023-05-05T14:25:01.163Z,57.72
2023-05-05T14:27:27.627Z,57.19
2023-05-05T14:29:54.208Z,57.90
2023-05-05T14:32:20.673Z,57.80
2023-05-05T14:34:49.623Z,56.58
2023-05-05T14:37:16.885Z,57.75
2023-05-05T14:39:43.310Z,57.92
2023-05-05T14:42:10.919Z,57.55
2023-05-05T14:44:37.369Z,57.78
2023-05-05T14:47:03.765Z,59.21
2023-05-05T14:49:30.239Z,60.08
2023-05-05T14:51:56.864Z,61.83
2023-05-05T14:54:28.448Z,63.31
2023-05-05T14:56:55.869Z,63.43
2023-05-05T14:59:22.400Z,62.63
2023-05-05T15:01:48.835Z,64.12
2023-05-05T15:04:15.901Z,64.31
2023-05-05T15:06:42.363Z,65.16
2023-05-05T15:09:08.823Z,65.69
2023-05-05T15:11:35.269Z,67.05
2023-05-05T15:14:01.709Z,64.88
2023-05-05T15:16:28.230Z,67.38
2023-05-05T15:18:54.748Z,69.10
2023-05-05T15:21:21.161Z,73.50
2023-05-05T15:23:47.588Z,98.47
2023-05-05T15:26:14.037Z,100.00
2023-05-05T15:28:41.102Z,99.04
2023-05-05T15:31:07.529Z,92.30
2023-05-05T15:33:34.744Z,94.43
2023-05-05T15:36:01.344Z,95.93
2023-05-05T15:38:29.022Z,93.63
2023-05-05T15:40:55.657Z,92.73
2023-05-05T15:43:22.080Z,89.70
2023-05-05T15:45:48.489Z,90.19
2023-05-05T15:48:14.875Z,88.76
2023-05-05T15:50:41.299Z,87.44
2023-05-05T15:53:07.728Z,89.24
2023-05-05T15:55:34.168Z,88.31
2023-05-05T15:58:00.945Z,86.77
2023-05-05T16:00:28.088Z,84.55
2023-05-05T16:02:54.592Z,85.54
2023-05-05T16:05:22.990Z,84.65
2023-05-05T16:07:49.747Z,85.69
2023-05-05T16:10:17.487Z,85.11
2023-05-05T16:12:43.921Z,80.89
2023-05-05T16:15:11.166Z,78.29
2023-05-05T16:17:38.085Z,76.17
2023-05-05T16:20:05.037Z,74.13
2023-05-05T16:22:31.577Z,72.46
2023-05-05T16:24:57.983Z,71.78
2023-05-05T16:27:24.590Z,72.19
2023-05-05T16:29:51.214Z,70.86
2023-05-05T16:32:17.653Z,68.19
2023-05-05T16:34:44.274Z,62.54
2023-05-05T16:37:10.845Z,61.39
2023-05-05T16:39:40.133Z,62.32
2023-05-05T16:42:06.895Z,65.42
2023-05-05T16:44:33.331Z,67.64
2023-05-05T16:46:59.769Z,67.72
2023-05-05T16:49:26.197Z,61.56
2023-05-05T16:51:53.400Z,57.95
2023-05-05T16:54:19.869Z,57.69
2023-05-05T16:56:46.405Z,54.38
2023-05-05T16:59:12.958Z,52.24
2023-05-05T17:01:39.392Z,48.13
2023-05-05T17:04:05.921Z,47.44
2023-05-05T17:06:33.010Z,48.04
2023-05-05T17:09:00.201Z,48.96
2023-05-05T17:11:26.717Z,49.23
2023-05-05T17:13:53.159Z,49.88
2023-05-05T17:16:19.635Z,50.41
2023-05-05T17:18:46.114Z,50.86
2023-05-05T17:21:12.558Z,50.24
2023-05-05T17:23:38.944Z,51.01
2023-05-05T17:26:05.424Z,50.87
2023-05-05T17:28:31.836Z,51.87
2023-05-05T17:30:59.873Z,52.25
2023-05-05T17:33:26.366Z,53.12
2023-05-05T17:35:52.838Z,54.66
2023-05-05T17:38:19.298Z,53.88
2023-05-05T17:40:45.737Z,53.76
2023-05-05T17:43:12.125Z,52.96
2023-05-05T17:45:38.601Z,53.51
2023-05-05T17:48:05.478Z,53.48
2023-05-05T17:50:31.901Z,54.89
2023-05-05T17:52:58.350Z,55.54
2023-05-05T17:55:24.779Z,55.87
2023-05-05T17:57:51.252Z,56.32
2023-05-05T18:00:18.264Z,56.91
2023-05-05T18:02:45.208Z,56.35
2023-05-05T18:05:11.952Z,58.55
2023-05-05T18:07:38.729Z,60.53
2023-05-05T18:10:07.020Z,61.98
2023-05-05T18:12:33.601Z,62.98
2023-05-05T18:15:01.477Z,63.51
2023-05-05T18:17:27.868Z,63.99
2023-05-05T18:19:54.456Z,63.93
2023-05-05T18:22:21.732Z,64.82
2023-05-05T18:24:48.190Z,65.07
2023-05-05T18:27:15.475Z,66.00
2023-05-05T18:29:41.929Z,66.84
2023-05-05T18:32:08.343Z,67.90
2023-05-05T18:34:34.801Z,68.60
2023-05-05T18:37:02.311Z,69.01
2023-05-05T18:39:28.707Z,69.43
2023-05-05T18:41:55.348Z,70.05
2023-05-05T18:44:21.755Z,70.92
2023-05-05T18:46:48.269Z,72.36
2023-05-05T18:49:15.247Z,71.87
2023-05-05T18:51:41.728Z,72.69
2023-05-05T18:54:08.154Z,73.70
2023-05-05T18:56:34.721Z,74.06
2023-05-05T18:59:01.128Z,74.49
2023-05-05T19:01:27.592Z,75.00
2023-05-05T19:03:54.105Z,75.62
2023-05-05T19:06:20.586Z,75.42
2023-05-05T19:08:47.069Z,75.83
2023-05-05T19:11:15.060Z,75.65
2023-05-05T19:13:42.003Z,75.83
2023-05-05T19:16:08.504Z,74.86
2023-05-05T19:18:34.976Z,74.71
2023-05-05T19:21:01.685Z,73.23
2023-05-05T19:23:28.118Z,74.47
2023-05-05T19:25:54.568Z,74.95
2023-05-05T19:28:21.379Z,75.50
2023-05-05T19:30:48.655Z,76.75
2023-05-05T19:33:15.789Z,77.44
2023-05-05T19:35:42.436Z,77.37
2023-05-05T19:38:10.232Z,76.93
2023-05-05T19:40:39.958Z,76.35
2023-05-05T19:43:06.397Z,76.05
2023-05-05T19:45:33.739Z,76.59
2023-05-05T19:48:01.407Z,76.48
2023-05-05T19:50:29.740Z,75.78
2023-05-05T19:52:56.267Z,76.21
2023-05-05T19:55:22.834Z,76.57
2023-05-05T19:57:49.292Z,76.27
2023-05-05T20:00:16.185Z,76.20
2023-05-05T20:02:42.775Z,76.56
2023-05-05T20:05:11.413Z,76.44
2023-05-05T20:07:37.858Z,76.28
2023-05-05T20:10:04.620Z,76.84
2023-05-05T20:12:31.090Z,77.22
2023-05-05T20:14:57.503Z,77.81
2023-05-05T20:17:25.657Z,77.96
2023-05-05T20:19:52.292Z,77.20
2023-05-05T20:22:18.785Z,77.57
2023-05-05T20:24:45.210Z,77.84
2023-05-05T20:27:11.627Z,77.96
2023-05-05T20:29:38.064Z,76.77
2023-05-05T20:32:05.534Z,76.62
2023-05-05T20:34:31.968Z,76.99
2023-05-05T20:36:58.433Z,76.95
2023-05-05T20:39:25.031Z,77.15
2023-05-05T20:41:51.450Z,77.47
2023-05-05T20:44:17.927Z,77.84
2023-05-05T20:46:44.414Z,78.01
2023-05-05T20:49:10.876Z,78.45
2023-05-05T20:51:37.315Z,78.79
2023-05-05T20:54:04.041Z,79.12
2023-05-05T20:56:30.435Z,79.21
2023-05-05T20:58:56.899Z,77.58
2023-05-05T21:01:23.439Z,77.62
2023-05-05T21:03:49.870Z,77.67
2023-05-05T21:06:16.341Z,77.40
2023-05-05T21:08:42.789Z,78.34
2023-05-05T21:11:09.903Z,78.19
2023-05-05T21:13:36.416Z,79.06
2023-05-05T21:16:02.844Z,79.39
2023-05-05T21:18:29.252Z,79.64
2023-05-05T21:20:56.130Z,79.28
2023-05-05T21:23:22.565Z,78.68
2023-05-05T21:25:49.090Z,79.16
2023-05-05T21:28:15.923Z,79.17
2023-05-05T21:30:42.390Z,79.30
2023-05-05T21:33:08.949Z,79.42
2023-05-05T21:35:35.460Z,79.55
2023-05-05T21:38:01.895Z,79.29
2023-05-05T21:40:28.374Z,79.24
2023-05-05T21:42:54.847Z,79.14
2023-05-05T21:45:21.356Z,78.66
2023-05-05T21:47:47.867Z,78.63
2023-05-05T21:50:14.308Z,78.75
2023-05-05T21:52:41.358Z,78.98
2023-05-05T21:55:10.495Z,78.82
2023-05-05T21:57:36.926Z,78.72
2023-05-05T22:00:05.885Z,78.82
2023-05-05T22:02:38.916Z,78.62
2023-05-05T22:05:05.937Z,78.04
2023-05-05T22:07:33.014Z,78.28
2023-05-05T22:09:59.554Z,78.47
2023-05-05T22:12:25.985Z,78.62
2023-05-05T22:14:52.454Z,78.91
2023-05-05T22:17:18.952Z,78.90
2023-05-05T22:19:45.424Z,78.68
2023-05-05T22:22:11.904Z,78.54
2023-05-05T22:24:38.285Z,78.50
2023-05-05T22:27:04.685Z,78.40
2023-05-05T22:29:31.112Z,78.33
2023-05-05T22:31:57.545Z,77.74
2023-05-05T22:34:23.995Z,78.62
2023-05-05T22:36:50.380Z,78.94
2023-05-05T22:39:18.448Z,79.01
2023-05-05T22:41:44.959Z,79.55
2023-05-05T22:44:11.431Z,79.02
2023-05-05T22:46:37.843Z,79.16
2023-05-05T22:49:04.310Z,79.41
2023-05-05T22:51:31.722Z,79.78
2023-05-05T22:53:58.279Z,80.32
2023-05-05T22:56:24.801Z,79.95
2023-05-05T22:58:51.217Z,79.98
2023-05-05T23:01:17.727Z,79.14
2023-05-05T23:03:44.182Z,79.98
2023-05-05T23:06:10.609Z,80.26
2023-05-05T23:08:37.004Z,80.64
2023-05-05T23:11:03.548Z,80.62
2023-05-05T23:13:29.986Z,80.39
2023-05-05T23:15:56.384Z,80.01
2023-05-05T23:18:22.794Z,80.03
2023-05-05T23:20:49.200Z,80.13
2023-05-05T23:23:15.645Z,79.98
2023-05-05T23:25:42.077Z,79.99
2023-05-05T23:28:08.552Z,79.90
2023-05-05T23:30:35.028Z,80.15
2023-05-05T23:33:01.501Z,80.09
2023-05-05T23:35:28.152Z,79.81
2023-05-05T23:37:54.738Z,80.01
2023-05-05T23:40:21.251Z,79.90
2023-05-05T23:42:47.705Z,79.79
2023-05-05T23:45:14.153Z,79.57
2023-05-05T23:47:40.623Z,79.72
2023-05-05T23:50:07.782Z,80.08
2023-05-05T23:52:34.198Z,80.07
2023-05-05T23:55:00.653Z,80.29
2023-05-05T23:57:27.060Z,80.14
2023-05-05T23:59:53.472Z,80.19
